Contact.

Ici la base.

Implantée sur l’aérodrome de Reims-Prunay, Fly&Fun et ses membres profitent de la région champenoise pour voler dans un cadre exceptionnel et partager cette ferveur commune autour de l’aéronautique.

ouvrir google map

Social Wall.

Vivamus sagittis lacus vel augue laoreet rutrum faucibus dolor auctor. Duis mollis, est non commodo luctu.

Facebook.

2 weeks ago

Fly & Fun

Encore quelques semaines avant la reprise des vols, patience... ... See MoreSee Less

 

Comment on Facebook

Magnifique 👏

3 weeks ago

Fly & Fun

youtu.be/qZHpH13s7MQRésumé de notre passage au Virtual Burning Lake Airshow le 14/03/2020 ... See MoreSee Less

Video image

 

Comment on Facebook

De nouveau un grand merci pour le partage, c'est vraiment sympa 👍

Instagram.
METAR :

LFQA 070630Z AUTO VRB01KT 3600 BR NSC 09/09 Q1029


vue en direct sur l'aérodrome
mentions légales politique de confidentialité
Cochet Concept
cx